Terminal Aerodrome Forecast
Issued by NWS Charleston, WV

Current Version | Previous Version | Graphics & Text | Print | Product List | Glossary On
Versions: 1 2 3 4 5 6 7 8 9 10 11 12 13 14 15 16 17 18 19 20 21 22 23 24 25 26
000
FTUS41 KRLX 210258 AAA
TAFBKW
TAF AMD
KBKW 210258Z 2103/2124 19005KT P6SM VCSH OVC050
     FM210600 23005KT P6SM -SHRA BKN030
     FM210900 25004KT P6SM -SHRA BKN009
     FM211100 27004KT 5SM -SHRA BKN005
     FM211700 31006KT P6SM BKN006
     FM212000 32005KT P6SM BKN013=

USA.gov is the U.S. government's official web portal to all federal, state and local government web resources and services.